FJL735 OPLA-OPIS
Flight info
| Callsign | FJL735 |
|---|---|
| Flight time | 0h 29m |
| Altitude | 20000 |
| Route | AKBER J121 INDEK |
| Aircraft | A320/M-SDE3FGHIRWY/LB1 |
Departure
| Time | 2026-05-07 13:02 |
|---|---|
| Airport | Allama Iqbal International Airport (OPLA) |
Arrival
| Time | 2026-05-07 13:32 |
|---|---|
| Airport | Islamabad International Airport (OPIS) |
| Time | Latitude | Longitude | Altitude | Speed | Heading |
|---|---|---|---|---|---|
| 2026-05-07 12:45 | 31.52107 | 74.40962 | 723 ft | 0 kts | 90° |
| 2026-05-07 12:51 | 31.52107 | 74.40958 | 723 ft | 3 kts | 90° |
| 2026-05-07 12:51 | 31.52106 | 74.40927 | 723 ft | 4 kts | 87° |
| 2026-05-07 12:52 | 31.52105 | 74.40896 | 722 ft | 4 kts | 83° |
| 2026-05-07 12:52 | 31.52100 | 74.40865 | 721 ft | 4 kts | 71° |
| 2026-05-07 12:52 | 31.52088 | 74.40840 | 723 ft | 4 kts | 24° |
| 2026-05-07 12:52 | 31.52080 | 74.40837 | 723 ft | 0 kts | 0° |
| 2026-05-07 12:54 | 31.52082 | 74.40837 | 723 ft | 2 kts | 0° |
| 2026-05-07 12:54 | 31.52098 | 74.40837 | 726 ft | 2 kts | 0° |
| 2026-05-07 12:54 | 31.52109 | 74.40837 | 724 ft | 2 kts | 0° |
| 2026-05-07 12:54 | 31.52133 | 74.40838 | 723 ft | 5 kts | 1° |
| 2026-05-07 12:55 | 31.52173 | 74.40839 | 723 ft | 6 kts | 359° |
| 2026-05-07 12:55 | 31.52223 | 74.40840 | 724 ft | 8 kts | 1° |
| 2026-05-07 12:55 | 31.52283 | 74.40842 | 726 ft | 9 kts | 1° |
| 2026-05-07 12:55 | 31.52352 | 74.40843 | 725 ft | 11 kts | 351° |
| 2026-05-07 12:56 | 31.52406 | 74.40791 | 724 ft | 11 kts | 288° |
| 2026-05-07 12:56 | 31.52418 | 74.40702 | 724 ft | 11 kts | 298° |
| 2026-05-07 12:56 | 31.52489 | 74.40672 | 725 ft | 12 kts | 1° |
| 2026-05-07 12:56 | 31.52581 | 74.40676 | 725 ft | 14 kts | 1° |
| 2026-05-07 12:57 | 31.52688 | 74.40679 | 724 ft | 16 kts | 2° |
| 2026-05-07 12:57 | 31.52791 | 74.40681 | 724 ft | 14 kts | 358° |
| 2026-05-07 12:57 | 31.52881 | 74.40680 | 726 ft | 12 kts | 1° |
| 2026-05-07 12:57 | 31.52959 | 74.40682 | 725 ft | 10 kts | 1° |
| 2026-05-07 12:58 | 31.53026 | 74.40683 | 727 ft | 9 kts | 1° |
| 2026-05-07 12:58 | 31.53082 | 74.40684 | 725 ft | 7 kts | 1° |
| 2026-05-07 12:58 | 31.53126 | 74.40685 | 726 ft | 6 kts | 1° |
| 2026-05-07 12:58 | 31.53162 | 74.40686 | 727 ft | 6 kts | 1° |
| 2026-05-07 12:59 | 31.53243 | 74.40688 | 726 ft | 16 kts | 2° |
| 2026-05-07 12:59 | 31.53359 | 74.40689 | 728 ft | 16 kts | 0° |
| 2026-05-07 12:59 | 31.53470 | 74.40690 | 727 ft | 16 kts | 359° |
| 2026-05-07 12:59 | 31.53571 | 74.40666 | 727 ft | 14 kts | 334° |
| 2026-05-07 13:00 | 31.53627 | 74.40610 | 728 ft | 7 kts | 309° |
| 2026-05-07 13:00 | 31.53638 | 74.40569 | 728 ft | 4 kts | 282° |
| 2026-05-07 13:00 | 31.53644 | 74.40541 | 730 ft | 4 kts | 282° |
| 2026-05-07 13:00 | 31.53638 | 74.40484 | 729 ft | 9 kts | 231° |
| 2026-05-07 13:01 | 31.53619 | 74.40481 | 728 ft | 0 kts | 180° |
| 2026-05-07 13:01 | 31.53574 | 74.40481 | 728 ft | 33 kts | 180° |
| 2026-05-07 13:02 | 31.53092 | 74.40475 | 726 ft | 102 kts | 180° |
| 2026-05-07 13:02 | 31.52172 | 74.40471 | 725 ft | 160 kts | 179° |
| 2026-05-07 13:02 | 31.50992 | 74.40392 | 1195 ft | 171 kts | 189° |
| 2026-05-07 13:02 | 31.49814 | 74.40166 | 1816 ft | 172 kts | 180° |
| 2026-05-07 13:03 | 31.48619 | 74.40121 | 2546 ft | 173 kts | 178° |
| 2026-05-07 13:03 | 31.47406 | 74.39809 | 2886 ft | 194 kts | 214° |
| 2026-05-07 13:03 | 31.46640 | 74.38460 | 3115 ft | 213 kts | 261° |
| 2026-05-07 13:03 | 31.46764 | 74.36708 | 3450 ft | 221 kts | 286° |
| 2026-05-07 13:04 | 31.47234 | 74.34979 | 3886 ft | 224 kts | 292° |
| 2026-05-07 13:04 | 31.47793 | 74.33215 | 4227 ft | 240 kts | 292° |
| 2026-05-07 13:04 | 31.48401 | 74.31287 | 4535 ft | 265 kts | 292° |
| 2026-05-07 13:04 | 31.49034 | 74.29185 | 5103 ft | 279 kts | 291° |
| 2026-05-07 13:05 | 31.49652 | 74.27020 | 5970 ft | 282 kts | 288° |
| 2026-05-07 13:05 | 31.50249 | 74.24827 | 6842 ft | 283 kts | 288° |
| 2026-05-07 13:05 | 31.50832 | 74.22625 | 7744 ft | 283 kts | 287° |
| 2026-05-07 13:05 | 31.51470 | 74.20442 | 8681 ft | 283 kts | 295° |
| 2026-05-07 13:06 | 31.52562 | 74.18530 | 9568 ft | 285 kts | 313° |
| 2026-05-07 13:06 | 31.54143 | 74.17077 | 10130 ft | 300 kts | 330° |
| 2026-05-07 13:06 | 31.56194 | 74.16248 | 10362 ft | 326 kts | 347° |
| 2026-05-07 13:06 | 31.58505 | 74.15736 | 10542 ft | 350 kts | 348° |
| 2026-05-07 13:07 | 31.60952 | 74.15202 | 10900 ft | 364 kts | 348° |
| 2026-05-07 13:07 | 31.63456 | 74.14650 | 11573 ft | 368 kts | 348° |
| 2026-05-07 13:07 | 31.65977 | 74.14085 | 12313 ft | 370 kts | 348° |
| 2026-05-07 13:07 | 31.68507 | 74.13508 | 13043 ft | 372 kts | 348° |
| 2026-05-07 13:08 | 31.71054 | 74.12925 | 13739 ft | 374 kts | 348° |
| 2026-05-07 13:08 | 31.73587 | 74.12346 | 14342 ft | 377 kts | 348° |
| 2026-05-07 13:08 | 31.76172 | 74.11755 | 14931 ft | 380 kts | 348° |
| 2026-05-07 13:08 | 31.78780 | 74.11158 | 15511 ft | 384 kts | 348° |
| 2026-05-07 13:09 | 31.81414 | 74.10551 | 16080 ft | 387 kts | 348° |
| 2026-05-07 13:09 | 31.83998 | 74.09632 | 16627 ft | 390 kts | 337° |
| 2026-05-07 13:09 | 31.86408 | 74.08129 | 17176 ft | 394 kts | 327° |
| 2026-05-07 13:09 | 31.88599 | 74.06165 | 17717 ft | 398 kts | 322° |
| 2026-05-07 13:10 | 31.90779 | 74.04128 | 18233 ft | 402 kts | 322° |
| 2026-05-07 13:10 | 31.92978 | 74.02077 | 18713 ft | 405 kts | 322° |
| 2026-05-07 13:10 | 31.95197 | 74.00022 | 19193 ft | 407 kts | 323° |
| 2026-05-07 13:10 | 31.97448 | 73.97989 | 19625 ft | 409 kts | 323° |
| 2026-05-07 13:11 | 31.99716 | 73.95975 | 19771 ft | 409 kts | 324° |
| 2026-05-07 13:11 | 32.02035 | 73.93931 | 19812 ft | 424 kts | 324° |
| 2026-05-07 13:11 | 32.04432 | 73.91816 | 19802 ft | 436 kts | 324° |
| 2026-05-07 13:11 | 32.06875 | 73.89652 | 19802 ft | 441 kts | 324° |
| 2026-05-07 13:12 | 32.09325 | 73.87466 | 19802 ft | 442 kts | 323° |
| 2026-05-07 13:12 | 32.11776 | 73.85275 | 19821 ft | 443 kts | 324° |
| 2026-05-07 13:12 | 32.14232 | 73.83076 | 19806 ft | 444 kts | 324° |
| 2026-05-07 13:12 | 32.16691 | 73.80871 | 19805 ft | 444 kts | 323° |
| 2026-05-07 13:13 | 32.19144 | 73.78665 | 19801 ft | 444 kts | 323° |
| 2026-05-07 13:13 | 32.21601 | 73.76454 | 19808 ft | 444 kts | 323° |
| 2026-05-07 13:13 | 32.24057 | 73.74244 | 19816 ft | 444 kts | 323° |
| 2026-05-07 13:13 | 32.26512 | 73.72035 | 19814 ft | 444 kts | 323° |
| 2026-05-07 13:14 | 32.28971 | 73.69824 | 19812 ft | 444 kts | 323° |
| 2026-05-07 13:14 | 32.31429 | 73.67613 | 19818 ft | 444 kts | 323° |
| 2026-05-07 13:14 | 32.33886 | 73.65401 | 19819 ft | 444 kts | 323° |
| 2026-05-07 13:14 | 32.36344 | 73.63182 | 19802 ft | 444 kts | 324° |
| 2026-05-07 13:15 | 32.38799 | 73.60967 | 19807 ft | 444 kts | 324° |
| 2026-05-07 13:15 | 32.41254 | 73.58753 | 19819 ft | 444 kts | 324° |
| 2026-05-07 13:15 | 32.43713 | 73.56536 | 19818 ft | 444 kts | 324° |
| 2026-05-07 13:15 | 32.46166 | 73.54321 | 19817 ft | 444 kts | 324° |
| 2026-05-07 13:16 | 32.48620 | 73.52101 | 19822 ft | 444 kts | 323° |
| 2026-05-07 13:16 | 32.51073 | 73.49877 | 19824 ft | 444 kts | 323° |
| 2026-05-07 13:16 | 32.53525 | 73.47655 | 19829 ft | 444 kts | 323° |
| 2026-05-07 13:16 | 32.55976 | 73.45431 | 19824 ft | 444 kts | 323° |
| 2026-05-07 13:17 | 32.58430 | 73.43207 | 19839 ft | 444 kts | 324° |
| 2026-05-07 13:17 | 32.60881 | 73.40983 | 19827 ft | 444 kts | 323° |
| 2026-05-07 13:17 | 32.63331 | 73.38757 | 19824 ft | 443 kts | 323° |
| 2026-05-07 13:17 | 32.65781 | 73.36533 | 19831 ft | 443 kts | 324° |
| 2026-05-07 13:18 | 32.68201 | 73.34335 | 19263 ft | 444 kts | 323° |
| 2026-05-07 13:18 | 32.70664 | 73.32094 | 18285 ft | 445 kts | 323° |
| 2026-05-07 13:18 | 32.73110 | 73.29869 | 17479 ft | 441 kts | 324° |
| 2026-05-07 13:18 | 32.75707 | 73.27910 | 16787 ft | 432 kts | 333° |
| 2026-05-07 13:19 | 32.78475 | 73.26562 | 15971 ft | 428 kts | 344° |
| 2026-05-07 13:19 | 32.81361 | 73.25829 | 15160 ft | 424 kts | 352° |
| 2026-05-07 13:19 | 32.84256 | 73.25355 | 14579 ft | 416 kts | 352° |
| 2026-05-07 13:19 | 32.87108 | 73.24886 | 13882 ft | 412 kts | 352° |
| 2026-05-07 13:20 | 32.89937 | 73.24417 | 13120 ft | 409 kts | 352° |
| 2026-05-07 13:20 | 32.92743 | 73.23951 | 12290 ft | 406 kts | 352° |
| 2026-05-07 13:20 | 32.95521 | 73.23488 | 11626 ft | 400 kts | 352° |
| 2026-05-07 13:20 | 32.98244 | 73.23036 | 11216 ft | 388 kts | 351° |
| 2026-05-07 13:21 | 33.00864 | 73.22600 | 10971 ft | 372 kts | 351° |
| 2026-05-07 13:21 | 33.03379 | 73.22182 | 10739 ft | 358 kts | 351° |
| 2026-05-07 13:21 | 33.05771 | 73.21784 | 10505 ft | 345 kts | 351° |
| 2026-05-07 13:21 | 33.08126 | 73.21391 | 10267 ft | 326 kts | 352° |
| 2026-05-07 13:22 | 33.10268 | 73.21035 | 10037 ft | 304 kts | 351° |
| 2026-05-07 13:22 | 33.12303 | 73.20697 | 9888 ft | 289 kts | 351° |
| 2026-05-07 13:22 | 33.14279 | 73.20363 | 9769 ft | 286 kts | 351° |
| 2026-05-07 13:22 | 33.16244 | 73.20029 | 9649 ft | 285 kts | 351° |
| 2026-05-07 13:23 | 33.18211 | 73.19693 | 9525 ft | 285 kts | 351° |
| 2026-05-07 13:23 | 33.20171 | 73.19362 | 9399 ft | 284 kts | 351° |
| 2026-05-07 13:23 | 33.22126 | 73.19036 | 9271 ft | 284 kts | 351° |
| 2026-05-07 13:23 | 33.24081 | 73.18712 | 9134 ft | 283 kts | 351° |
| 2026-05-07 13:24 | 33.26041 | 73.18386 | 8678 ft | 285 kts | 351° |
| 2026-05-07 13:24 | 33.28013 | 73.18055 | 8234 ft | 286 kts | 351° |
| 2026-05-07 13:24 | 33.29978 | 73.17723 | 7765 ft | 287 kts | 351° |
| 2026-05-07 13:24 | 33.31935 | 73.17394 | 7476 ft | 282 kts | 351° |
| 2026-05-07 13:25 | 33.33874 | 73.17071 | 7075 ft | 281 kts | 351° |
| 2026-05-07 13:25 | 33.35809 | 73.16749 | 6734 ft | 278 kts | 350° |
| 2026-05-07 13:25 | 33.37653 | 73.16444 | 6610 ft | 257 kts | 351° |
| 2026-05-07 13:25 | 33.39383 | 73.16153 | 6245 ft | 247 kts | 350° |
| 2026-05-07 13:26 | 33.41055 | 73.15870 | 5993 ft | 238 kts | 349° |
| 2026-05-07 13:26 | 33.42711 | 73.15564 | 5689 ft | 242 kts | 350° |
| 2026-05-07 13:26 | 33.44374 | 73.15237 | 5493 ft | 238 kts | 349° |
| 2026-05-07 13:26 | 33.45986 | 73.14916 | 5405 ft | 234 kts | 349° |
| 2026-05-07 13:27 | 33.47568 | 73.14496 | 5317 ft | 233 kts | 338° |
| 2026-05-07 13:27 | 33.48949 | 73.13513 | 5216 ft | 232 kts | 317° |
| 2026-05-07 13:27 | 33.49950 | 73.12017 | 5050 ft | 229 kts | 296° |
| 2026-05-07 13:27 | 33.50435 | 73.10252 | 4885 ft | 220 kts | 279° |
| 2026-05-07 13:28 | 33.50716 | 73.08479 | 4730 ft | 215 kts | 278° |
| 2026-05-07 13:28 | 33.50995 | 73.06721 | 4586 ft | 215 kts | 279° |
| 2026-05-07 13:28 | 33.51277 | 73.04946 | 4444 ft | 218 kts | 279° |
| 2026-05-07 13:28 | 33.51558 | 73.03181 | 4299 ft | 212 kts | 279° |
| 2026-05-07 13:29 | 33.51831 | 73.01464 | 4153 ft | 207 kts | 279° |
| 2026-05-07 13:29 | 33.52097 | 72.99790 | 4047 ft | 200 kts | 277° |
| 2026-05-07 13:29 | 33.52354 | 72.98165 | 3893 ft | 198 kts | 278° |
| 2026-05-07 13:29 | 33.52607 | 72.96563 | 3694 ft | 193 kts | 277° |
| 2026-05-07 13:30 | 33.52855 | 72.94996 | 3441 ft | 190 kts | 278° |
| 2026-05-07 13:30 | 33.53098 | 72.93456 | 3206 ft | 186 kts | 278° |
| 2026-05-07 13:30 | 33.53330 | 72.91991 | 2980 ft | 172 kts | 277° |
| 2026-05-07 13:30 | 33.53547 | 72.90620 | 2764 ft | 163 kts | 278° |
| 2026-05-07 13:31 | 33.53753 | 72.89307 | 2569 ft | 160 kts | 278° |
| 2026-05-07 13:31 | 33.53957 | 72.88008 | 2390 ft | 158 kts | 279° |
| 2026-05-07 13:31 | 33.54158 | 72.86733 | 2161 ft | 155 kts | 279° |
| 2026-05-07 13:31 | 33.54357 | 72.85462 | 1978 ft | 155 kts | 278° |
| 2026-05-07 13:32 | 33.54557 | 72.84191 | 1770 ft | 154 kts | 279° |
| 2026-05-07 13:32 | 33.54733 | 72.83058 | 1762 ft | 108 kts | 282° |
| 2026-05-07 13:32 | 33.54841 | 72.82540 | 1751 ft | 35 kts | 296° |
| 2026-05-07 13:32 | 33.54879 | 72.82508 | 1751 ft | 2 kts | 339° |
| 2026-05-07 13:33 | 33.54882 | 72.82506 | 1754 ft | 0 kts | 339° |
| 2026-05-07 13:33 | 33.54894 | 72.82501 | 1755 ft | 1 kts | 337° |
| 2026-05-07 13:33 | 33.54920 | 72.82480 | 1761 ft | 9 kts | 315° |
| 2026-05-07 13:33 | 33.54964 | 72.82433 | 1754 ft | 8 kts | 327° |
| 2026-05-07 13:34 | 33.55017 | 72.82432 | 1750 ft | 7 kts | 7° |
| 2026-05-07 13:34 | 33.55063 | 72.82444 | 1762 ft | 2 kts | 18° |
| 2026-05-07 13:34 | 33.55083 | 72.82452 | 1765 ft | 5 kts | 19° |
| 2026-05-07 13:35 | 33.55132 | 72.82463 | 1767 ft | 10 kts | 11° |
| 2026-05-07 13:35 | 33.55197 | 72.82524 | 1769 ft | 16 kts | 76° |
| 2026-05-07 13:35 | 33.55180 | 72.82678 | 1772 ft | 20 kts | 101° |
| 2026-05-07 13:35 | 33.55159 | 72.82812 | 1768 ft | 10 kts | 97° |
| 2026-05-07 13:36 | 33.55147 | 72.82899 | 1769 ft | 11 kts | 95° |
| 2026-05-07 13:36 | 33.55177 | 72.82993 | 1769 ft | 13 kts | 59° |
| 2026-05-07 13:36 | 33.55241 | 72.83024 | 1769 ft | 10 kts | 313° |
| 2026-05-07 13:36 | 33.55292 | 72.82977 | 1771 ft | 2 kts | 324° |
| 2026-05-07 13:37 | 33.55299 | 72.82972 | 1770 ft | 0 kts | 328° |